Terminal Aerodrome Forecast
Issued by NWS

Home | Current Version | Previous Version | Text Only | Print | Product List | Glossary On
Versions: 1 2 3 4 5 6 7 8 9 10 11 12 13 14 15
000
FTUS43 KFGF 261120 AAA
TAFTVF
TAF AMD
KTVF 261120Z 2611/2712 20008KT 5SM BR OVC003
     FM261300 22006KT P6SM OVC010
     FM261500 24008KT P6SM OVC015
     FM261800 24011KT P6SM BKN050
     FM262200 24012KT P6SM SCT130
     FM270300 VRB03KT P6SM SCT250
      AMD LTD TO CLD VIS AND WIND=

USA.gov is the U.S. government's official web portal to all federal, state and local government web resources and services.